sensor_id;sensor_type;location;lat;lon;timestamp;P1;durP1;ratioP1;P2;durP2;ratioP2
38843;SDS011;24596;48.080;8.362;2023-06-19T00:00:51;11.80;;;8.65;;
38843;SDS011;24596;48.080;8.362;2023-06-19T00:03:17;13.60;;;8.70;;
38843;SDS011;24596;48.080;8.362;2023-06-19T00:05:42;11.57;;;8.80;;
38843;SDS011;24596;48.080;8.362;2023-06-19T00:08:07;11.25;;;8.00;;
38843;SDS011;24596;48.080;8.362;2023-06-19T00:10:33;12.43;;;9.30;;
38843;SDS011;24596;48.080;8.362;2023-06-19T00:12:58;17.20;;;11.35;;
38843;SDS011;24596;48.080;8.362;2023-06-19T00:15:23;12.80;;;9.63;;
38843;SDS011;24596;48.080;8.362;2023-06-19T00:17:48;12.65;;;8.93;;
38843;SDS011;24596;48.080;8.362;2023-06-19T00:20:14;13.20;;;8.63;;
38843;SDS011;24596;48.080;8.362;2023-06-19T00:22:39;12.73;;;7.95;;
38843;SDS011;24596;48.080;8.362;2023-06-19T00:25:05;12.05;;;8.18;;
38843;SDS011;24596;48.080;8.362;2023-06-19T00:27:30;14.70;;;8.25;;
38843;SDS011;24596;48.080;8.362;2023-06-19T00:29:56;13.65;;;8.45;;
38843;SDS011;24596;48.080;8.362;2023-06-19T00:32:26;11.90;;;8.57;;
38843;SDS011;24596;48.080;8.362;2023-06-19T00:34:52;10.02;;;7.85;;
38843;SDS011;24596;48.080;8.362;2023-06-19T00:37:17;11.25;;;7.90;;
38843;SDS011;24596;48.080;8.362;2023-06-19T00:39:42;10.70;;;6.90;;
38843;SDS011;24596;48.080;8.362;2023-06-19T00:42:07;10.10;;;5.72;;
38843;SDS011;24596;48.080;8.362;2023-06-19T00:44:33;9.90;;;5.55;;
38843;SDS011;24596;48.080;8.362;2023-06-19T00:46:58;8.63;;;4.68;;
38843;SDS011;24596;48.080;8.362;2023-06-19T00:49:25;9.48;;;5.15;;
38843;SDS011;24596;48.080;8.362;2023-06-19T00:51:51;9.05;;;4.40;;
38843;SDS011;24596;48.080;8.362;2023-06-19T00:54:16;7.70;;;4.22;;
38843;SDS011;24596;48.080;8.362;2023-06-19T00:56:42;7.40;;;4.32;;
38843;SDS011;24596;48.080;8.362;2023-06-19T00:59:11;8.07;;;3.97;;
38843;SDS011;24596;48.080;8.362;2023-06-19T01:01:37;8.25;;;3.70;;
38843;SDS011;24596;48.080;8.362;2023-06-19T01:04:02;6.30;;;3.45;;
38843;SDS011;24596;48.080;8.362;2023-06-19T01:06:29;7.43;;;4.00;;
38843;SDS011;24596;48.080;8.362;2023-06-19T01:09:04;6.28;;;3.35;;
38843;SDS011;24596;48.080;8.362;2023-06-19T01:11:34;6.15;;;3.25;;
38843;SDS011;24596;48.080;8.362;2023-06-19T01:14:03;6.55;;;3.40;;
38843;SDS011;24596;48.080;8.362;2023-06-19T01:16:31;7.00;;;3.10;;
38843;SDS011;24596;48.080;8.362;2023-06-19T01:18:56;6.70;;;3.47;;
38843;SDS011;24596;48.080;8.362;2023-06-19T01:21:21;5.70;;;3.00;;
38843;SDS011;24596;48.080;8.362;2023-06-19T01:23:46;7.07;;;3.13;;
38843;SDS011;24596;48.080;8.362;2023-06-19T01:26:12;5.70;;;3.20;;
38843;SDS011;24596;48.080;8.362;2023-06-19T01:28:39;8.77;;;3.60;;
38843;SDS011;24596;48.080;8.362;2023-06-19T01:31:06;5.32;;;2.92;;
38843;SDS011;24596;48.080;8.362;2023-06-19T01:33:33;5.93;;;2.95;;
38843;SDS011;24596;48.080;8.362;2023-06-19T01:36:00;7.05;;;2.85;;
38843;SDS011;24596;48.080;8.362;2023-06-19T01:38:26;6.22;;;2.90;;
38843;SDS011;24596;48.080;8.362;2023-06-19T01:40:53;6.07;;;2.88;;
38843;SDS011;24596;48.080;8.362;2023-06-19T01:43:19;5.80;;;2.95;;
38843;SDS011;24596;48.080;8.362;2023-06-19T01:45:45;7.40;;;2.80;;
38843;SDS011;24596;48.080;8.362;2023-06-19T01:48:10;5.68;;;2.88;;
38843;SDS011;24596;48.080;8.362;2023-06-19T01:50:35;5.90;;;2.95;;
38843;SDS011;24596;48.080;8.362;2023-06-19T01:53:01;6.00;;;3.28;;
38843;SDS011;24596;48.080;8.362;2023-06-19T01:55:26;6.32;;;2.72;;
38843;SDS011;24596;48.080;8.362;2023-06-19T01:57:51;6.05;;;3.25;;
38843;SDS011;24596;48.080;8.362;2023-06-19T02:00:16;6.73;;;3.33;;
38843;SDS011;24596;48.080;8.362;2023-06-19T02:02:42;5.82;;;2.97;;
38843;SDS011;24596;48.080;8.362;2023-06-19T02:05:07;5.68;;;2.90;;
38843;SDS011;24596;48.080;8.362;2023-06-19T02:07:32;6.78;;;3.30;;
38843;SDS011;24596;48.080;8.362;2023-06-19T02:09:57;6.20;;;2.80;;
38843;SDS011;24596;48.080;8.362;2023-06-19T02:12:23;6.88;;;2.58;;
38843;SDS011;24596;48.080;8.362;2023-06-19T02:14:48;4.60;;;2.20;;
38843;SDS011;24596;48.080;8.362;2023-06-19T02:17:13;6.95;;;2.65;;
38843;SDS011;24596;48.080;8.362;2023-06-19T02:19:39;5.38;;;2.53;;
38843;SDS011;24596;48.080;8.362;2023-06-19T02:22:04;5.05;;;2.58;;
38843;SDS011;24596;48.080;8.362;2023-06-19T02:24:29;5.18;;;2.60;;
38843;SDS011;24596;48.080;8.362;2023-06-19T02:26:54;4.87;;;2.43;;
38843;SDS011;24596;48.080;8.362;2023-06-19T02:29:20;5.40;;;2.50;;
38843;SDS011;24596;48.080;8.362;2023-06-19T02:31:45;5.55;;;2.50;;
38843;SDS011;24596;48.080;8.362;2023-06-19T02:34:10;5.00;;;2.45;;
38843;SDS011;24596;48.080;8.362;2023-06-19T02:36:36;5.38;;;2.60;;
38843;SDS011;24596;48.080;8.362;2023-06-19T02:39:01;5.13;;;2.60;;
38843;SDS011;24596;48.080;8.362;2023-06-19T02:41:26;6.25;;;2.83;;
38843;SDS011;24596;48.080;8.362;2023-06-19T02:43:51;5.60;;;2.90;;
38843;SDS011;24596;48.080;8.362;2023-06-19T02:46:17;5.77;;;2.67;;
38843;SDS011;24596;48.080;8.362;2023-06-19T02:48:42;6.20;;;3.10;;
38843;SDS011;24596;48.080;8.362;2023-06-19T02:51:08;4.88;;;2.75;;
38843;SDS011;24596;48.080;8.362;2023-06-19T02:53:33;5.30;;;2.55;;
38843;SDS011;24596;48.080;8.362;2023-06-19T02:55:58;6.50;;;3.10;;
38843;SDS011;24596;48.080;8.362;2023-06-19T02:58:23;5.85;;;3.08;;
38843;SDS011;24596;48.080;8.362;2023-06-19T03:00:49;4.57;;;2.55;;
38843;SDS011;24596;48.080;8.362;2023-06-19T03:03:14;5.78;;;2.75;;
38843;SDS011;24596;48.080;8.362;2023-06-19T03:05:39;7.65;;;3.00;;
38843;SDS011;24596;48.080;8.362;2023-06-19T03:08:04;4.60;;;2.88;;
38843;SDS011;24596;48.080;8.362;2023-06-19T03:10:30;5.43;;;2.97;;
38843;SDS011;24596;48.080;8.362;2023-06-19T03:12:55;6.45;;;3.58;;
38843;SDS011;24596;48.080;8.362;2023-06-19T03:15:20;5.00;;;3.10;;
38843;SDS011;24596;48.080;8.362;2023-06-19T03:17:46;6.27;;;3.37;;
38843;SDS011;24596;48.080;8.362;2023-06-19T03:20:11;5.57;;;3.15;;
38843;SDS011;24596;48.080;8.362;2023-06-19T03:22:39;6.03;;;3.28;;
38843;SDS011;24596;48.080;8.362;2023-06-19T03:25:04;5.97;;;3.25;;
38843;SDS011;24596;48.080;8.362;2023-06-19T03:27:29;6.35;;;2.80;;
38843;SDS011;24596;48.080;8.362;2023-06-19T03:29:55;6.50;;;3.53;;
38843;SDS011;24596;48.080;8.362;2023-06-19T03:32:20;12.27;;;6.05;;
38843;SDS011;24596;48.080;8.362;2023-06-19T03:34:45;6.25;;;3.67;;
38843;SDS011;24596;48.080;8.362;2023-06-19T03:37:11;6.30;;;3.65;;
38843;SDS011;24596;48.080;8.362;2023-06-19T03:39:37;5.93;;;3.63;;
38843;SDS011;24596;48.080;8.362;2023-06-19T03:42:02;6.40;;;4.10;;
38843;SDS011;24596;48.080;8.362;2023-06-19T03:44:27;5.72;;;3.40;;
38843;SDS011;24596;48.080;8.362;2023-06-19T03:46:53;6.30;;;3.63;;
38843;SDS011;24596;48.080;8.362;2023-06-19T03:49:18;6.97;;;3.77;;
38843;SDS011;24596;48.080;8.362;2023-06-19T03:51:43;6.22;;;3.30;;
38843;SDS011;24596;48.080;8.362;2023-06-19T03:54:08;7.47;;;3.67;;
38843;SDS011;24596;48.080;8.362;2023-06-19T03:56:33;6.33;;;3.50;;
38843;SDS011;24596;48.080;8.362;2023-06-19T03:58:59;7.30;;;3.30;;
38843;SDS011;24596;48.080;8.362;2023-06-19T04:01:24;6.63;;;3.37;;
38843;SDS011;24596;48.080;8.362;2023-06-19T04:03:49;6.30;;;3.20;;
38843;SDS011;24596;48.080;8.362;2023-06-19T04:06:14;7.20;;;3.75;;
38843;SDS011;24596;48.080;8.362;2023-06-19T04:08:39;5.85;;;3.47;;
38843;SDS011;24596;48.080;8.362;2023-06-19T04:11:05;5.82;;;3.63;;
38843;SDS011;24596;48.080;8.362;2023-06-19T04:13:30;8.00;;;4.00;;
38843;SDS011;24596;48.080;8.362;2023-06-19T04:15:55;5.38;;;2.90;;
38843;SDS011;24596;48.080;8.362;2023-06-19T04:18:20;5.72;;;3.58;;
38843;SDS011;24596;48.080;8.362;2023-06-19T04:20:46;7.13;;;3.50;;
38843;SDS011;24596;48.080;8.362;2023-06-19T04:23:11;5.45;;;3.17;;
38843;SDS011;24596;48.080;8.362;2023-06-19T04:25:36;5.18;;;2.90;;
38843;SDS011;24596;48.080;8.362;2023-06-19T04:28:02;5.53;;;3.20;;
38843;SDS011;24596;48.080;8.362;2023-06-19T04:30:28;5.40;;;3.50;;
38843;SDS011;24596;48.080;8.362;2023-06-19T04:32:54;6.10;;;3.33;;
38843;SDS011;24596;48.080;8.362;2023-06-19T04:35:19;6.00;;;3.40;;
38843;SDS011;24596;48.080;8.362;2023-06-19T04:37:44;5.78;;;3.35;;
38843;SDS011;24596;48.080;8.362;2023-06-19T04:40:10;6.03;;;3.72;;
38843;SDS011;24596;48.080;8.362;2023-06-19T04:42:36;6.30;;;3.50;;
38843;SDS011;24596;48.080;8.362;2023-06-19T04:45:03;6.18;;;3.00;;
38843;SDS011;24596;48.080;8.362;2023-06-19T04:47:32;6.35;;;3.53;;
38843;SDS011;24596;48.080;8.362;2023-06-19T04:49:57;5.00;;;3.27;;
38843;SDS011;24596;48.080;8.362;2023-06-19T04:52:22;5.33;;;2.90;;
38843;SDS011;24596;48.080;8.362;2023-06-19T04:54:48;5.78;;;3.33;;
38843;SDS011;24596;48.080;8.362;2023-06-19T04:57:13;5.70;;;3.50;;
38843;SDS011;24596;48.080;8.362;2023-06-19T04:59:38;5.87;;;3.40;;
38843;SDS011;24596;48.080;8.362;2023-06-19T05:02:03;6.00;;;3.17;;
38843;SDS011;24596;48.080;8.362;2023-06-19T05:04:29;7.03;;;3.92;;
38843;SDS011;24596;48.080;8.362;2023-06-19T05:06:57;5.78;;;3.58;;
38843;SDS011;24596;48.080;8.362;2023-06-19T05:09:22;6.70;;;3.85;;
38843;SDS011;24596;48.080;8.362;2023-06-19T05:11:48;7.00;;;4.30;;
38843;SDS011;24596;48.080;8.362;2023-06-19T05:14:13;6.57;;;3.77;;
38843;SDS011;24596;48.080;8.362;2023-06-19T05:16:39;5.88;;;3.05;;
38843;SDS011;24596;48.080;8.362;2023-06-19T05:19:04;5.35;;;3.75;;
38843;SDS011;24596;48.080;8.362;2023-06-19T05:21:30;6.40;;;3.88;;
38843;SDS011;24596;48.080;8.362;2023-06-19T05:23:55;6.00;;;3.60;;
38843;SDS011;24596;48.080;8.362;2023-06-19T05:26:20;8.03;;;3.90;;
38843;SDS011;24596;48.080;8.362;2023-06-19T05:28:47;6.50;;;3.60;;
38843;SDS011;24596;48.080;8.362;2023-06-19T05:31:12;6.47;;;3.75;;
38843;SDS011;24596;48.080;8.362;2023-06-19T05:33:37;9.32;;;3.88;;
38843;SDS011;24596;48.080;8.362;2023-06-19T05:36:03;6.63;;;3.60;;
38843;SDS011;24596;48.080;8.362;2023-06-19T05:38:28;6.95;;;3.50;;
38843;SDS011;24596;48.080;8.362;2023-06-19T05:40:55;7.15;;;3.97;;
38843;SDS011;24596;48.080;8.362;2023-06-19T05:43:20;6.05;;;3.78;;
38843;SDS011;24596;48.080;8.362;2023-06-19T05:45:47;5.78;;;3.15;;
38843;SDS011;24596;48.080;8.362;2023-06-19T05:48:12;7.32;;;4.15;;
38843;SDS011;24596;48.080;8.362;2023-06-19T05:50:37;6.07;;;3.70;;
38843;SDS011;24596;48.080;8.362;2023-06-19T05:53:02;7.38;;;3.88;;
38843;SDS011;24596;48.080;8.362;2023-06-19T05:55:27;6.38;;;4.13;;
38843;SDS011;24596;48.080;8.362;2023-06-19T05:57:53;7.20;;;3.88;;
38843;SDS011;24596;48.080;8.362;2023-06-19T06:00:19;8.90;;;3.90;;
38843;SDS011;24596;48.080;8.362;2023-06-19T06:02:44;5.28;;;3.40;;
38843;SDS011;24596;48.080;8.362;2023-06-19T06:05:09;5.57;;;3.80;;
38843;SDS011;24596;48.080;8.362;2023-06-19T06:07:35;6.60;;;3.65;;
38843;SDS011;24596;48.080;8.362;2023-06-19T06:10:00;6.70;;;3.67;;
38843;SDS011;24596;48.080;8.362;2023-06-19T06:12:25;7.13;;;3.73;;
38843;SDS011;24596;48.080;8.362;2023-06-19T06:14:51;8.27;;;3.78;;
38843;SDS011;24596;48.080;8.362;2023-06-19T06:17:16;6.17;;;3.43;;
38843;SDS011;24596;48.080;8.362;2023-06-19T06:19:41;5.95;;;3.75;;
38843;SDS011;24596;48.080;8.362;2023-06-19T06:22:06;7.65;;;3.95;;
38843;SDS011;24596;48.080;8.362;2023-06-19T06:24:32;7.80;;;3.78;;
38843;SDS011;24596;48.080;8.362;2023-06-19T06:26:57;7.63;;;3.97;;
38843;SDS011;24596;48.080;8.362;2023-06-19T06:29:23;6.65;;;3.92;;
38843;SDS011;24596;48.080;8.362;2023-06-19T06:31:49;6.40;;;4.32;;
38843;SDS011;24596;48.080;8.362;2023-06-19T06:34:14;5.78;;;3.47;;
38843;SDS011;24596;48.080;8.362;2023-06-19T06:36:39;6.07;;;4.50;;
38843;SDS011;24596;48.080;8.362;2023-06-19T06:39:04;6.23;;;3.97;;
38843;SDS011;24596;48.080;8.362;2023-06-19T06:41:31;8.65;;;3.70;;
38843;SDS011;24596;48.080;8.362;2023-06-19T06:43:56;6.00;;;4.07;;
38843;SDS011;24596;48.080;8.362;2023-06-19T06:46:21;5.75;;;3.65;;
38843;SDS011;24596;48.080;8.362;2023-06-19T06:48:46;7.65;;;3.95;;
38843;SDS011;24596;48.080;8.362;2023-06-19T06:51:12;7.47;;;4.67;;
38843;SDS011;24596;48.080;8.362;2023-06-19T06:53:37;6.80;;;3.97;;
38843;SDS011;24596;48.080;8.362;2023-06-19T06:56:02;5.90;;;3.80;;
38843;SDS011;24596;48.080;8.362;2023-06-19T06:58:28;6.38;;;4.05;;
38843;SDS011;24596;48.080;8.362;2023-06-19T07:00:53;5.90;;;3.90;;
38843;SDS011;24596;48.080;8.362;2023-06-19T07:03:18;6.88;;;4.25;;
38843;SDS011;24596;48.080;8.362;2023-06-19T07:05:44;6.30;;;4.07;;
38843;SDS011;24596;48.080;8.362;2023-06-19T07:08:09;7.10;;;4.20;;
38843;SDS011;24596;48.080;8.362;2023-06-19T07:10:34;6.27;;;4.23;;
38843;SDS011;24596;48.080;8.362;2023-06-19T07:12:59;8.33;;;4.20;;
38843;SDS011;24596;48.080;8.362;2023-06-19T07:15:25;6.07;;;3.90;;
38843;SDS011;24596;48.080;8.362;2023-06-19T07:17:50;5.97;;;4.00;;
38843;SDS011;24596;48.080;8.362;2023-06-19T07:20:15;6.47;;;4.18;;
38843;SDS011;24596;48.080;8.362;2023-06-19T07:22:41;6.33;;;3.27;;
38843;SDS011;24596;48.080;8.362;2023-06-19T07:25:06;6.15;;;3.60;;
38843;SDS011;24596;48.080;8.362;2023-06-19T07:27:33;6.38;;;3.08;;
38843;SDS011;24596;48.080;8.362;2023-06-19T07:29:58;6.20;;;3.53;;
38843;SDS011;24596;48.080;8.362;2023-06-19T07:32:23;4.67;;;3.07;;
38843;SDS011;24596;48.080;8.362;2023-06-19T07:34:48;4.82;;;2.92;;
38843;SDS011;24596;48.080;8.362;2023-06-19T07:37:14;5.95;;;3.40;;
38843;SDS011;24596;48.080;8.362;2023-06-19T07:39:46;6.85;;;3.55;;
38843;SDS011;24596;48.080;8.362;2023-06-19T07:42:12;4.90;;;2.97;;
38843;SDS011;24596;48.080;8.362;2023-06-19T07:44:37;5.53;;;3.13;;
38843;SDS011;24596;48.080;8.362;2023-06-19T07:47:02;9.20;;;3.30;;
38843;SDS011;24596;48.080;8.362;2023-06-19T07:49:28;5.45;;;2.88;;
38843;SDS011;24596;48.080;8.362;2023-06-19T07:51:53;5.93;;;3.37;;
38843;SDS011;24596;48.080;8.362;2023-06-19T07:54:18;5.53;;;3.27;;
38843;SDS011;24596;48.080;8.362;2023-06-19T07:56:43;5.15;;;2.95;;
38843;SDS011;24596;48.080;8.362;2023-06-19T07:59:09;5.17;;;3.07;;
38843;SDS011;24596;48.080;8.362;2023-06-19T08:01:34;5.38;;;3.00;;
38843;SDS011;24596;48.080;8.362;2023-06-19T08:03:59;4.60;;;2.50;;
38843;SDS011;24596;48.080;8.362;2023-06-19T08:06:24;4.38;;;2.55;;
38843;SDS011;24596;48.080;8.362;2023-06-19T08:08:49;5.03;;;2.47;;
38843;SDS011;24596;48.080;8.362;2023-06-19T08:11:16;4.18;;;2.45;;
38843;SDS011;24596;48.080;8.362;2023-06-19T08:13:41;6.43;;;2.93;;
38843;SDS011;24596;48.080;8.362;2023-06-19T08:16:06;6.00;;;2.80;;
38843;SDS011;24596;48.080;8.362;2023-06-19T08:18:32;5.67;;;3.10;;
38843;SDS011;24596;48.080;8.362;2023-06-19T08:20:57;5.63;;;3.07;;
38843;SDS011;24596;48.080;8.362;2023-06-19T08:23:22;5.60;;;3.28;;
38843;SDS011;24596;48.080;8.362;2023-06-19T08:25:47;8.30;;;3.00;;
38843;SDS011;24596;48.080;8.362;2023-06-19T08:28:12;5.68;;;3.17;;
38843;SDS011;24596;48.080;8.362;2023-06-19T08:30:38;5.70;;;3.13;;
38843;SDS011;24596;48.080;8.362;2023-06-19T08:33:03;4.93;;;2.90;;
38843;SDS011;24596;48.080;8.362;2023-06-19T08:35:28;7.05;;;3.60;;
38843;SDS011;24596;48.080;8.362;2023-06-19T08:37:53;6.87;;;3.40;;
38843;SDS011;24596;48.080;8.362;2023-06-19T08:40:19;5.68;;;3.28;;
38843;SDS011;24596;48.080;8.362;2023-06-19T08:42:45;5.65;;;3.30;;
38843;SDS011;24596;48.080;8.362;2023-06-19T08:45:10;6.57;;;3.40;;
38843;SDS011;24596;48.080;8.362;2023-06-19T08:47:35;6.57;;;3.67;;
38843;SDS011;24596;48.080;8.362;2023-06-19T08:50:00;6.95;;;3.95;;
38843;SDS011;24596;48.080;8.362;2023-06-19T08:52:26;9.30;;;4.07;;
38843;SDS011;24596;48.080;8.362;2023-06-19T08:54:51;6.10;;;3.70;;
38843;SDS011;24596;48.080;8.362;2023-06-19T08:57:17;7.00;;;3.80;;
38843;SDS011;24596;48.080;8.362;2023-06-19T08:59:48;5.87;;;3.63;;
38843;SDS011;24596;48.080;8.362;2023-06-19T09:02:14;7.28;;;3.80;;
38843;SDS011;24596;48.080;8.362;2023-06-19T09:04:39;7.47;;;3.80;;
38843;SDS011;24596;48.080;8.362;2023-06-19T09:07:06;6.60;;;3.60;;
38843;SDS011;24596;48.080;8.362;2023-06-19T09:09:32;7.68;;;3.90;;
38843;SDS011;24596;48.080;8.362;2023-06-19T09:14:24;6.10;;;3.45;;
38843;SDS011;24596;48.080;8.362;2023-06-19T09:16:49;6.88;;;3.60;;
38843;SDS011;24596;48.080;8.362;2023-06-19T09:19:19;8.83;;;3.70;;
38843;SDS011;24596;48.080;8.362;2023-06-19T09:21:45;6.80;;;3.97;;
38843;SDS011;24596;48.080;8.362;2023-06-19T09:24:10;7.03;;;3.87;;
38843;SDS011;24596;48.080;8.362;2023-06-19T09:26:35;7.15;;;4.10;;
38843;SDS011;24596;48.080;8.362;2023-06-19T09:29:13;7.63;;;3.90;;
38843;SDS011;24596;48.080;8.362;2023-06-19T09:31:38;6.90;;;3.80;;
38843;SDS011;24596;48.080;8.362;2023-06-19T09:34:06;6.90;;;4.50;;
38843;SDS011;24596;48.080;8.362;2023-06-19T09:36:31;7.28;;;3.90;;
38843;SDS011;24596;48.080;8.362;2023-06-19T09:38:57;7.40;;;4.05;;
38843;SDS011;24596;48.080;8.362;2023-06-19T09:41:24;6.50;;;4.38;;
38843;SDS011;24596;48.080;8.362;2023-06-19T09:43:50;6.85;;;3.88;;
38843;SDS011;24596;48.080;8.362;2023-06-19T09:46:19;7.18;;;3.80;;
38843;SDS011;24596;48.080;8.362;2023-06-19T09:48:46;8.15;;;4.18;;
38843;SDS011;24596;48.080;8.362;2023-06-19T09:51:20;6.10;;;3.85;;
38843;SDS011;24596;48.080;8.362;2023-06-19T09:53:46;6.50;;;4.13;;
38843;SDS011;24596;48.080;8.362;2023-06-19T09:56:12;7.63;;;4.10;;
38843;SDS011;24596;48.080;8.362;2023-06-19T09:58:37;7.38;;;4.53;;
38843;SDS011;24596;48.080;8.362;2023-06-19T10:01:03;8.13;;;4.45;;
38843;SDS011;24596;48.080;8.362;2023-06-19T10:03:32;6.35;;;4.20;;
38843;SDS011;24596;48.080;8.362;2023-06-19T10:05:58;8.98;;;4.40;;
38843;SDS011;24596;48.080;8.362;2023-06-19T10:08:27;9.48;;;4.40;;
38843;SDS011;24596;48.080;8.362;2023-06-19T10:10:54;7.38;;;4.28;;
38843;SDS011;24596;48.080;8.362;2023-06-19T10:13:20;7.70;;;4.65;;
38843;SDS011;24596;48.080;8.362;2023-06-19T10:15:45;7.00;;;4.83;;
38843;SDS011;24596;48.080;8.362;2023-06-19T10:18:13;7.38;;;4.43;;
38843;SDS011;24596;48.080;8.362;2023-06-19T10:20:39;6.35;;;4.32;;
38843;SDS011;24596;48.080;8.362;2023-06-19T10:23:05;6.82;;;4.57;;
38843;SDS011;24596;48.080;8.362;2023-06-19T10:25:32;7.47;;;4.72;;
38843;SDS011;24596;48.080;8.362;2023-06-19T10:27:58;8.20;;;4.90;;
38843;SDS011;24596;48.080;8.362;2023-06-19T10:30:24;7.72;;;4.28;;
38843;SDS011;24596;48.080;8.362;2023-06-19T10:32:49;6.95;;;4.75;;
38843;SDS011;24596;48.080;8.362;2023-06-19T10:35:15;8.73;;;4.63;;
38843;SDS011;24596;48.080;8.362;2023-06-19T10:37:41;10.82;;;5.32;;
38843;SDS011;24596;48.080;8.362;2023-06-19T10:40:07;6.68;;;4.55;;
38843;SDS011;24596;48.080;8.362;2023-06-19T10:42:41;8.10;;;4.57;;
38843;SDS011;24596;48.080;8.362;2023-06-19T10:47:32;6.95;;;4.40;;
38843;SDS011;24596;48.080;8.362;2023-06-19T10:49:57;8.13;;;4.32;;
38843;SDS011;24596;48.080;8.362;2023-06-19T10:52:23;7.83;;;4.50;;
38843;SDS011;24596;48.080;8.362;2023-06-19T10:54:54;6.63;;;3.88;;
38843;SDS011;24596;48.080;8.362;2023-06-19T10:57:27;7.47;;;4.68;;
38843;SDS011;24596;48.080;8.362;2023-06-19T10:59:52;7.82;;;5.22;;
38843;SDS011;24596;48.080;8.362;2023-06-19T11:02:18;7.32;;;4.63;;
38843;SDS011;24596;48.080;8.362;2023-06-19T11:04:43;7.47;;;4.53;;
38843;SDS011;24596;48.080;8.362;2023-06-19T11:07:08;9.60;;;4.50;;
38843;SDS011;24596;48.080;8.362;2023-06-19T11:09:34;6.72;;;4.72;;
38843;SDS011;24596;48.080;8.362;2023-06-19T11:11:59;7.33;;;4.60;;
38843;SDS011;24596;48.080;8.362;2023-06-19T11:14:28;6.57;;;4.45;;
38843;SDS011;24596;48.080;8.362;2023-06-19T11:16:53;8.27;;;4.43;;
38843;SDS011;24596;48.080;8.362;2023-06-19T11:19:19;7.35;;;4.78;;
38843;SDS011;24596;48.080;8.362;2023-06-19T11:21:46;7.05;;;5.00;;
38843;SDS011;24596;48.080;8.362;2023-06-19T11:24:12;7.00;;;4.40;;
38843;SDS011;24596;48.080;8.362;2023-06-19T11:26:38;8.18;;;4.70;;
38843;SDS011;24596;48.080;8.362;2023-06-19T11:29:24;7.50;;;4.30;;
38843;SDS011;24596;48.080;8.362;2023-06-19T11:31:50;5.72;;;3.97;;
38843;SDS011;24596;48.080;8.362;2023-06-19T11:34:16;6.40;;;4.43;;
38843;SDS011;24596;48.080;8.362;2023-06-19T11:36:42;5.88;;;4.43;;
38843;SDS011;24596;48.080;8.362;2023-06-19T11:39:10;6.43;;;4.05;;
38843;SDS011;24596;48.080;8.362;2023-06-19T11:41:36;7.72;;;4.97;;
38843;SDS011;24596;48.080;8.362;2023-06-19T11:44:05;7.03;;;4.73;;
38843;SDS011;24596;48.080;8.362;2023-06-19T11:46:31;7.72;;;4.75;;
38843;SDS011;24596;48.080;8.362;2023-06-19T11:49:17;11.57;;;4.65;;
38843;SDS011;24596;48.080;8.362;2023-06-19T11:51:44;7.28;;;4.53;;
38843;SDS011;24596;48.080;8.362;2023-06-19T11:54:11;7.35;;;4.88;;
38843;SDS011;24596;48.080;8.362;2023-06-19T11:56:37;7.60;;;4.53;;
38843;SDS011;24596;48.080;8.362;2023-06-19T11:59:03;7.03;;;4.78;;
38843;SDS011;24596;48.080;8.362;2023-06-19T12:01:29;7.05;;;4.28;;
38843;SDS011;24596;48.080;8.362;2023-06-19T12:03:54;7.28;;;5.00;;
38843;SDS011;24596;48.080;8.362;2023-06-19T12:06:20;8.00;;;4.30;;
38843;SDS011;24596;48.080;8.362;2023-06-19T12:08:45;6.15;;;4.55;;
38843;SDS011;24596;48.080;8.362;2023-06-19T12:11:10;7.57;;;4.60;;
38843;SDS011;24596;48.080;8.362;2023-06-19T12:13:38;6.88;;;4.72;;
38843;SDS011;24596;48.080;8.362;2023-06-19T12:16:03;7.50;;;4.60;;
38843;SDS011;24596;48.080;8.362;2023-06-19T12:18:28;7.20;;;4.32;;
38843;SDS011;24596;48.080;8.362;2023-06-19T12:20:54;6.93;;;4.90;;
38843;SDS011;24596;48.080;8.362;2023-06-19T12:23:20;7.13;;;4.80;;
38843;SDS011;24596;48.080;8.362;2023-06-19T12:25:46;7.93;;;4.80;;
38843;SDS011;24596;48.080;8.362;2023-06-19T12:28:11;8.17;;;4.53;;
38843;SDS011;24596;48.080;8.362;2023-06-19T12:30:41;8.60;;;4.95;;
38843;SDS011;24596;48.080;8.362;2023-06-19T12:33:06;10.93;;;5.47;;
38843;SDS011;24596;48.080;8.362;2023-06-19T12:35:31;9.00;;;5.37;;
38843;SDS011;24596;48.080;8.362;2023-06-19T12:37:57;6.85;;;4.25;;
38843;SDS011;24596;48.080;8.362;2023-06-19T12:40:22;7.30;;;4.78;;
38843;SDS011;24596;48.080;8.362;2023-06-19T12:42:48;6.40;;;4.77;;
38843;SDS011;24596;48.080;8.362;2023-06-19T12:45:15;6.93;;;4.97;;
38843;SDS011;24596;48.080;8.362;2023-06-19T12:47:40;7.03;;;4.85;;
38843;SDS011;24596;48.080;8.362;2023-06-19T12:50:06;7.63;;;4.93;;
38843;SDS011;24596;48.080;8.362;2023-06-19T12:52:31;6.63;;;4.93;;
38843;SDS011;24596;48.080;8.362;2023-06-19T12:54:56;8.03;;;4.87;;
38843;SDS011;24596;48.080;8.362;2023-06-19T12:57:24;7.05;;;4.90;;
38843;SDS011;24596;48.080;8.362;2023-06-19T12:59:49;7.50;;;4.67;;
38843;SDS011;24596;48.080;8.362;2023-06-19T13:02:15;7.97;;;4.70;;
38843;SDS011;24596;48.080;8.362;2023-06-19T13:04:40;7.70;;;5.13;;
38843;SDS011;24596;48.080;8.362;2023-06-19T13:07:05;7.60;;;5.07;;
38843;SDS011;24596;48.080;8.362;2023-06-19T13:09:30;8.05;;;5.25;;
38843;SDS011;24596;48.080;8.362;2023-06-19T13:11:56;8.27;;;5.38;;
38843;SDS011;24596;48.080;8.362;2023-06-19T13:14:21;8.30;;;5.03;;
38843;SDS011;24596;48.080;8.362;2023-06-19T13:16:46;6.67;;;4.90;;
38843;SDS011;24596;48.080;8.362;2023-06-19T13:19:11;8.80;;;5.38;;
38843;SDS011;24596;48.080;8.362;2023-06-19T13:21:37;7.10;;;5.43;;
38843;SDS011;24596;48.080;8.362;2023-06-19T13:24:02;7.25;;;5.10;;
38843;SDS011;24596;48.080;8.362;2023-06-19T13:26:27;7.63;;;5.28;;
38843;SDS011;24596;48.080;8.362;2023-06-19T13:28:52;7.37;;;5.60;;
38843;SDS011;24596;48.080;8.362;2023-06-19T13:31:18;9.43;;;5.50;;
38843;SDS011;24596;48.080;8.362;2023-06-19T13:33:43;10.87;;;5.93;;
38843;SDS011;24596;48.080;8.362;2023-06-19T13:36:08;8.73;;;5.10;;
38843;SDS011;24596;48.080;8.362;2023-06-19T13:38:33;7.67;;;5.40;;
38843;SDS011;24596;48.080;8.362;2023-06-19T13:40:58;7.70;;;4.87;;
38843;SDS011;24596;48.080;8.362;2023-06-19T13:43:24;7.17;;;4.93;;
38843;SDS011;24596;48.080;8.362;2023-06-19T13:45:49;8.55;;;5.20;;
38843;SDS011;24596;48.080;8.362;2023-06-19T13:48:15;7.90;;;5.30;;
38843;SDS011;24596;48.080;8.362;2023-06-19T13:50:40;8.20;;;5.20;;
38843;SDS011;24596;48.080;8.362;2023-06-19T13:53:05;7.65;;;5.60;;
38843;SDS011;24596;48.080;8.362;2023-06-19T13:55:30;7.67;;;4.87;;
38843;SDS011;24596;48.080;8.362;2023-06-19T13:57:55;8.13;;;4.73;;
38843;SDS011;24596;48.080;8.362;2023-06-19T14:00:21;8.80;;;5.20;;
38843;SDS011;24596;48.080;8.362;2023-06-19T14:02:46;7.95;;;6.07;;
38843;SDS011;24596;48.080;8.362;2023-06-19T14:05:11;10.65;;;5.47;;
38843;SDS011;24596;48.080;8.362;2023-06-19T14:07:39;11.77;;;6.07;;
38843;SDS011;24596;48.080;8.362;2023-06-19T14:10:05;7.38;;;5.25;;
38843;SDS011;24596;48.080;8.362;2023-06-19T14:12:30;7.55;;;5.47;;
38843;SDS011;24596;48.080;8.362;2023-06-19T14:14:56;9.00;;;5.82;;
38843;SDS011;24596;48.080;8.362;2023-06-19T14:17:21;10.50;;;5.72;;
38843;SDS011;24596;48.080;8.362;2023-06-19T14:19:46;7.93;;;5.68;;
38843;SDS011;24596;48.080;8.362;2023-06-19T14:22:12;9.10;;;5.67;;
38843;SDS011;24596;48.080;8.362;2023-06-19T14:24:37;9.67;;;6.07;;
38843;SDS011;24596;48.080;8.362;2023-06-19T14:27:02;8.80;;;6.15;;
38843;SDS011;24596;48.080;8.362;2023-06-19T14:29:27;10.32;;;6.00;;
38843;SDS011;24596;48.080;8.362;2023-06-19T14:31:53;11.00;;;5.50;;
38843;SDS011;24596;48.080;8.362;2023-06-19T14:34:18;9.90;;;6.00;;
38843;SDS011;24596;48.080;8.362;2023-06-19T14:36:44;10.50;;;6.30;;
38843;SDS011;24596;48.080;8.362;2023-06-19T14:39:09;8.40;;;5.97;;
38843;SDS011;24596;48.080;8.362;2023-06-19T14:41:36;9.90;;;6.10;;